sensor_id;sensor_type;location;lat;lon;timestamp;P1;durP1;ratioP1;P2;durP2;ratioP2
27209;SDS011;14721;42.668;23.386;2024-02-16T00:02:24;29.23;;;13.17;;
27209;SDS011;14721;42.668;23.386;2024-02-16T00:04:55;31.20;;;13.13;;
27209;SDS011;14721;42.668;23.386;2024-02-16T00:07:20;32.97;;;12.17;;
27209;SDS011;14721;42.668;23.386;2024-02-16T00:09:49;31.97;;;14.13;;
27209;SDS011;14721;42.668;23.386;2024-02-16T00:12:14;30.70;;;13.57;;
27209;SDS011;14721;42.668;23.386;2024-02-16T00:14:49;31.30;;;13.57;;
27209;SDS011;14721;42.668;23.386;2024-02-16T00:17:15;31.93;;;11.97;;
27209;SDS011;14721;42.668;23.386;2024-02-16T00:19:51;34.63;;;13.60;;
27209;SDS011;14721;42.668;23.386;2024-02-16T00:22:17;29.47;;;12.23;;
27209;SDS011;14721;42.668;23.386;2024-02-16T00:24:45;29.63;;;11.23;;
27209;SDS011;14721;42.668;23.386;2024-02-16T00:27:12;33.57;;;13.17;;
27209;SDS011;14721;42.668;23.386;2024-02-16T00:29:40;28.73;;;13.20;;
27209;SDS011;14721;42.668;23.386;2024-02-16T00:32:06;31.20;;;11.97;;
27209;SDS011;14721;42.668;23.386;2024-02-16T00:34:35;24.17;;;12.27;;
27209;SDS011;14721;42.668;23.386;2024-02-16T00:37:04;26.53;;;11.83;;
27209;SDS011;14721;42.668;23.386;2024-02-16T00:39:49;26.43;;;11.93;;
27209;SDS011;14721;42.668;23.386;2024-02-16T00:42:17;24.23;;;12.40;;
27209;SDS011;14721;42.668;23.386;2024-02-16T00:44:45;24.90;;;12.90;;
27209;SDS011;14721;42.668;23.386;2024-02-16T00:47:16;23.10;;;11.40;;
27209;SDS011;14721;42.668;23.386;2024-02-16T00:49:50;29.17;;;12.17;;
27209;SDS011;14721;42.668;23.386;2024-02-16T00:52:36;24.97;;;10.77;;
27209;SDS011;14721;42.668;23.386;2024-02-16T00:55:30;24.80;;;10.77;;
27209;SDS011;14721;42.668;23.386;2024-02-16T00:57:55;29.97;;;11.03;;
27209;SDS011;14721;42.668;23.386;2024-02-16T01:00:21;22.27;;;11.13;;
27209;SDS011;14721;42.668;23.386;2024-02-16T01:02:54;19.93;;;11.23;;
27209;SDS011;14721;42.668;23.386;2024-02-16T01:05:19;23.70;;;10.73;;
27209;SDS011;14721;42.668;23.386;2024-02-16T01:07:45;27.20;;;10.83;;
27209;SDS011;14721;42.668;23.386;2024-02-16T01:10:10;26.63;;;11.50;;
27209;SDS011;14721;42.668;23.386;2024-02-16T01:12:37;20.60;;;10.27;;
27209;SDS011;14721;42.668;23.386;2024-02-16T01:15:04;22.43;;;10.93;;
27209;SDS011;14721;42.668;23.386;2024-02-16T01:17:50;21.90;;;10.30;;
27209;SDS011;14721;42.668;23.386;2024-02-16T01:20:17;22.13;;;9.23;;
27209;SDS011;14721;42.668;23.386;2024-02-16T01:22:42;23.83;;;9.40;;
27209;SDS011;14721;42.668;23.386;2024-02-16T01:25:17;23.90;;;10.40;;
27209;SDS011;14721;42.668;23.386;2024-02-16T01:27:42;25.03;;;10.47;;
27209;SDS011;14721;42.668;23.386;2024-02-16T01:30:21;18.53;;;10.43;;
27209;SDS011;14721;42.668;23.386;2024-02-16T01:33:15;21.33;;;10.57;;
27209;SDS011;14721;42.668;23.386;2024-02-16T01:36:06;31.87;;;11.27;;
27209;SDS011;14721;42.668;23.386;2024-02-16T01:41:21;22.67;;;10.77;;
27209;SDS011;14721;42.668;23.386;2024-02-16T01:43:46;23.70;;;10.73;;
27209;SDS011;14721;42.668;23.386;2024-02-16T01:46:12;22.07;;;11.57;;
27209;SDS011;14721;42.668;23.386;2024-02-16T01:48:38;27.80;;;10.37;;
27209;SDS011;14721;42.668;23.386;2024-02-16T01:51:39;21.10;;;9.77;;
27209;SDS011;14721;42.668;23.386;2024-02-16T01:54:16;23.17;;;10.07;;
27209;SDS011;14721;42.668;23.386;2024-02-16T01:56:46;30.63;;;11.07;;
27209;SDS011;14721;42.668;23.386;2024-02-16T01:59:16;24.40;;;9.87;;
27209;SDS011;14721;42.668;23.386;2024-02-16T02:01:42;23.23;;;9.93;;
27209;SDS011;14721;42.668;23.386;2024-02-16T02:04:08;21.93;;;9.67;;
27209;SDS011;14721;42.668;23.386;2024-02-16T02:06:35;23.13;;;8.53;;
27209;SDS011;14721;42.668;23.386;2024-02-16T02:09:12;22.20;;;9.13;;
27209;SDS011;14721;42.668;23.386;2024-02-16T02:12:09;20.47;;;8.20;;
27209;SDS011;14721;42.668;23.386;2024-02-16T02:14:52;14.87;;;6.53;;
27209;SDS011;14721;42.668;23.386;2024-02-16T02:17:27;18.63;;;8.47;;
27209;SDS011;14721;42.668;23.386;2024-02-16T02:19:53;24.00;;;9.47;;
27209;SDS011;14721;42.668;23.386;2024-02-16T02:22:19;21.47;;;8.83;;
27209;SDS011;14721;42.668;23.386;2024-02-16T02:24:48;22.87;;;9.03;;
27209;SDS011;14721;42.668;23.386;2024-02-16T02:27:17;19.57;;;8.17;;
27209;SDS011;14721;42.668;23.386;2024-02-16T02:29:43;20.63;;;8.47;;
27209;SDS011;14721;42.668;23.386;2024-02-16T02:32:13;23.67;;;9.80;;
27209;SDS011;14721;42.668;23.386;2024-02-16T02:34:39;19.33;;;9.37;;
27209;SDS011;14721;42.668;23.386;2024-02-16T02:37:14;20.13;;;8.57;;
27209;SDS011;14721;42.668;23.386;2024-02-16T02:39:41;23.77;;;8.43;;
27209;SDS011;14721;42.668;23.386;2024-02-16T02:42:11;20.60;;;9.07;;
27209;SDS011;14721;42.668;23.386;2024-02-16T02:44:37;15.57;;;8.40;;
27209;SDS011;14721;42.668;23.386;2024-02-16T02:47:15;21.40;;;9.03;;
27209;SDS011;14721;42.668;23.386;2024-02-16T02:50:02;15.73;;;8.70;;
27209;SDS011;14721;42.668;23.386;2024-02-16T02:52:29;23.07;;;10.60;;
27209;SDS011;14721;42.668;23.386;2024-02-16T02:54:54;20.40;;;9.17;;
27209;SDS011;14721;42.668;23.386;2024-02-16T02:57:20;25.67;;;10.63;;
27209;SDS011;14721;42.668;23.386;2024-02-16T02:59:46;24.23;;;9.40;;
27209;SDS011;14721;42.668;23.386;2024-02-16T03:02:11;24.60;;;10.47;;
27209;SDS011;14721;42.668;23.386;2024-02-16T03:05:01;21.70;;;9.90;;
27209;SDS011;14721;42.668;23.386;2024-02-16T03:07:42;16.43;;;8.87;;
27209;SDS011;14721;42.668;23.386;2024-02-16T03:10:08;18.20;;;9.60;;
27209;SDS011;14721;42.668;23.386;2024-02-16T03:12:35;24.27;;;9.90;;
27209;SDS011;14721;42.668;23.386;2024-02-16T03:15:14;20.20;;;9.60;;
27209;SDS011;14721;42.668;23.386;2024-02-16T03:17:54;28.97;;;10.60;;
27209;SDS011;14721;42.668;23.386;2024-02-16T03:20:35;24.17;;;9.73;;
27209;SDS011;14721;42.668;23.386;2024-02-16T03:23:01;22.07;;;10.00;;
27209;SDS011;14721;42.668;23.386;2024-02-16T03:25:29;28.73;;;10.93;;
27209;SDS011;14721;42.668;23.386;2024-02-16T03:27:57;23.23;;;9.43;;
27209;SDS011;14721;42.668;23.386;2024-02-16T03:36:32;20.07;;;10.60;;
27209;SDS011;14721;42.668;23.386;2024-02-16T03:39:11;28.03;;;10.70;;
27209;SDS011;14721;42.668;23.386;2024-02-16T03:41:48;26.63;;;11.13;;
27209;SDS011;14721;42.668;23.386;2024-02-16T03:44:45;28.67;;;10.63;;
27209;SDS011;14721;42.668;23.386;2024-02-16T03:47:24;26.10;;;9.57;;
27209;SDS011;14721;42.668;23.386;2024-02-16T03:49:52;27.20;;;11.97;;
27209;SDS011;14721;42.668;23.386;2024-02-16T03:52:25;24.97;;;9.90;;
27209;SDS011;14721;42.668;23.386;2024-02-16T03:54:53;28.27;;;11.60;;
27209;SDS011;14721;42.668;23.386;2024-02-16T03:57:19;27.10;;;11.83;;
27209;SDS011;14721;42.668;23.386;2024-02-16T03:59:55;26.80;;;11.47;;
27209;SDS011;14721;42.668;23.386;2024-02-16T04:02:25;29.40;;;13.10;;
27209;SDS011;14721;42.668;23.386;2024-02-16T04:04:58;30.63;;;13.63;;
27209;SDS011;14721;42.668;23.386;2024-02-16T04:07:33;30.30;;;11.57;;
27209;SDS011;14721;42.668;23.386;2024-02-16T04:09:59;29.57;;;12.60;;
27209;SDS011;14721;42.668;23.386;2024-02-16T04:12:27;26.50;;;12.70;;
27209;SDS011;14721;42.668;23.386;2024-02-16T04:14:53;29.63;;;12.67;;
27209;SDS011;14721;42.668;23.386;2024-02-16T04:17:19;25.27;;;11.57;;
27209;SDS011;14721;42.668;23.386;2024-02-16T04:19:45;29.87;;;13.60;;
27209;SDS011;14721;42.668;23.386;2024-02-16T04:22:10;32.80;;;12.47;;
27209;SDS011;14721;42.668;23.386;2024-02-16T04:24:46;32.23;;;12.83;;
27209;SDS011;14721;42.668;23.386;2024-02-16T04:27:19;23.27;;;11.67;;
27209;SDS011;14721;42.668;23.386;2024-02-16T04:29:45;30.47;;;13.30;;
27209;SDS011;14721;42.668;23.386;2024-02-16T04:32:10;30.03;;;13.10;;
27209;SDS011;14721;42.668;23.386;2024-02-16T04:34:36;32.00;;;13.67;;
27209;SDS011;14721;42.668;23.386;2024-02-16T04:37:13;30.37;;;13.57;;
27209;SDS011;14721;42.668;23.386;2024-02-16T04:39:39;45.17;;;13.57;;
27209;SDS011;14721;42.668;23.386;2024-02-16T04:42:08;28.13;;;12.63;;
27209;SDS011;14721;42.668;23.386;2024-02-16T04:44:36;24.03;;;11.40;;
27209;SDS011;14721;42.668;23.386;2024-02-16T04:47:04;36.77;;;13.47;;
27209;SDS011;14721;42.668;23.386;2024-02-16T04:49:39;29.50;;;13.17;;
27209;SDS011;14721;42.668;23.386;2024-02-16T04:52:17;37.87;;;12.90;;
27209;SDS011;14721;42.668;23.386;2024-02-16T04:54:46;27.37;;;11.83;;
27209;SDS011;14721;42.668;23.386;2024-02-16T04:57:16;39.07;;;13.60;;
27209;SDS011;14721;42.668;23.386;2024-02-16T04:59:45;33.27;;;13.37;;
27209;SDS011;14721;42.668;23.386;2024-02-16T05:02:11;29.90;;;12.93;;
27209;SDS011;14721;42.668;23.386;2024-02-16T05:04:38;36.53;;;12.77;;
27209;SDS011;14721;42.668;23.386;2024-02-16T05:07:06;26.00;;;11.50;;
27209;SDS011;14721;42.668;23.386;2024-02-16T05:09:41;27.47;;;12.83;;
27209;SDS011;14721;42.668;23.386;2024-02-16T05:12:29;35.73;;;14.77;;
27209;SDS011;14721;42.668;23.386;2024-02-16T05:14:54;28.87;;;12.47;;
27209;SDS011;14721;42.668;23.386;2024-02-16T05:17:20;39.77;;;14.67;;
27209;SDS011;14721;42.668;23.386;2024-02-16T05:19:47;43.70;;;16.50;;
27209;SDS011;14721;42.668;23.386;2024-02-16T05:22:13;42.23;;;15.37;;
27209;SDS011;14721;42.668;23.386;2024-02-16T05:24:39;34.23;;;13.87;;
27209;SDS011;14721;42.668;23.386;2024-02-16T05:27:05;33.20;;;14.67;;
27209;SDS011;14721;42.668;23.386;2024-02-16T05:29:30;27.60;;;12.47;;
27209;SDS011;14721;42.668;23.386;2024-02-16T05:31:56;39.60;;;15.70;;
27209;SDS011;14721;42.668;23.386;2024-02-16T05:34:22;35.20;;;15.33;;
27209;SDS011;14721;42.668;23.386;2024-02-16T05:36:47;39.63;;;17.43;;
27209;SDS011;14721;42.668;23.386;2024-02-16T05:39:14;41.13;;;20.50;;
27209;SDS011;14721;42.668;23.386;2024-02-16T05:41:52;49.97;;;18.43;;
27209;SDS011;14721;42.668;23.386;2024-02-16T05:44:23;35.60;;;17.77;;
27209;SDS011;14721;42.668;23.386;2024-02-16T05:46:50;39.83;;;16.90;;
27209;SDS011;14721;42.668;23.386;2024-02-16T05:49:15;42.07;;;15.80;;
27209;SDS011;14721;42.668;23.386;2024-02-16T05:51:41;35.53;;;14.30;;
27209;SDS011;14721;42.668;23.386;2024-02-16T05:54:07;33.27;;;15.13;;
27209;SDS011;14721;42.668;23.386;2024-02-16T05:56:33;35.87;;;15.30;;
27209;SDS011;14721;42.668;23.386;2024-02-16T05:59:02;37.73;;;17.00;;
27209;SDS011;14721;42.668;23.386;2024-02-16T06:01:29;42.17;;;16.67;;
27209;SDS011;14721;42.668;23.386;2024-02-16T06:03:57;36.60;;;15.13;;
27209;SDS011;14721;42.668;23.386;2024-02-16T06:06:23;34.97;;;16.47;;
27209;SDS011;14721;42.668;23.386;2024-02-16T06:08:48;35.83;;;14.37;;
27209;SDS011;14721;42.668;23.386;2024-02-16T06:11:14;30.80;;;14.70;;
27209;SDS011;14721;42.668;23.386;2024-02-16T06:13:42;29.53;;;13.47;;
27209;SDS011;14721;42.668;23.386;2024-02-16T06:16:11;40.77;;;16.10;;
27209;SDS011;14721;42.668;23.386;2024-02-16T06:18:36;31.20;;;16.20;;
27209;SDS011;14721;42.668;23.386;2024-02-16T06:21:03;34.77;;;17.17;;
27209;SDS011;14721;42.668;23.386;2024-02-16T06:23:29;35.20;;;14.53;;
27209;SDS011;14721;42.668;23.386;2024-02-16T06:25:56;28.13;;;13.20;;
27209;SDS011;14721;42.668;23.386;2024-02-16T06:28:21;27.20;;;13.80;;
27209;SDS011;14721;42.668;23.386;2024-02-16T06:30:49;23.40;;;10.47;;
27209;SDS011;14721;42.668;23.386;2024-02-16T06:33:14;21.73;;;11.47;;
27209;SDS011;14721;42.668;23.386;2024-02-16T06:35:40;25.83;;;11.20;;
27209;SDS011;14721;42.668;23.386;2024-02-16T06:38:06;22.50;;;10.50;;
27209;SDS011;14721;42.668;23.386;2024-02-16T06:40:31;20.83;;;9.73;;
27209;SDS011;14721;42.668;23.386;2024-02-16T06:42:57;20.07;;;9.87;;
27209;SDS011;14721;42.668;23.386;2024-02-16T06:45:25;24.83;;;9.83;;
27209;SDS011;14721;42.668;23.386;2024-02-16T06:47:51;21.40;;;9.73;;
27209;SDS011;14721;42.668;23.386;2024-02-16T06:50:20;19.27;;;9.57;;
27209;SDS011;14721;42.668;23.386;2024-02-16T06:52:45;24.20;;;10.13;;
27209;SDS011;14721;42.668;23.386;2024-02-16T06:55:11;18.83;;;9.80;;
27209;SDS011;14721;42.668;23.386;2024-02-16T06:57:36;21.90;;;10.97;;
27209;SDS011;14721;42.668;23.386;2024-02-16T07:00:02;25.43;;;11.90;;
27209;SDS011;14721;42.668;23.386;2024-02-16T07:02:28;27.10;;;11.30;;
27209;SDS011;14721;42.668;23.386;2024-02-16T07:04:53;25.33;;;11.30;;
27209;SDS011;14721;42.668;23.386;2024-02-16T07:07:19;34.47;;;12.30;;
27209;SDS011;14721;42.668;23.386;2024-02-16T07:09:47;32.03;;;10.90;;
27209;SDS011;14721;42.668;23.386;2024-02-16T07:12:13;23.60;;;10.77;;
27209;SDS011;14721;42.668;23.386;2024-02-16T07:14:39;25.27;;;10.70;;
27209;SDS011;14721;42.668;23.386;2024-02-16T07:17:04;29.90;;;12.33;;
27209;SDS011;14721;42.668;23.386;2024-02-16T07:19:36;28.20;;;13.57;;
27209;SDS011;14721;42.668;23.386;2024-02-16T07:22:07;29.93;;;15.00;;
27209;SDS011;14721;42.668;23.386;2024-02-16T07:24:35;28.63;;;13.27;;
27209;SDS011;14721;42.668;23.386;2024-02-16T07:27:07;24.63;;;11.63;;
27209;SDS011;14721;42.668;23.386;2024-02-16T07:29:33;20.03;;;11.70;;
27209;SDS011;14721;42.668;23.386;2024-02-16T07:32:01;21.83;;;11.30;;
27209;SDS011;14721;42.668;23.386;2024-02-16T07:34:26;27.00;;;12.87;;
27209;SDS011;14721;42.668;23.386;2024-02-16T07:36:52;29.50;;;13.30;;
27209;SDS011;14721;42.668;23.386;2024-02-16T07:39:18;28.60;;;13.93;;
27209;SDS011;14721;42.668;23.386;2024-02-16T07:41:47;22.40;;;12.13;;
27209;SDS011;14721;42.668;23.386;2024-02-16T07:44:13;30.13;;;12.43;;
27209;SDS011;14721;42.668;23.386;2024-02-16T07:46:39;23.37;;;10.90;;
27209;SDS011;14721;42.668;23.386;2024-02-16T07:49:06;27.20;;;12.00;;
27209;SDS011;14721;42.668;23.386;2024-02-16T07:51:31;25.53;;;11.20;;
27209;SDS011;14721;42.668;23.386;2024-02-16T07:53:57;24.03;;;10.53;;
27209;SDS011;14721;42.668;23.386;2024-02-16T07:56:24;24.07;;;11.30;;
27209;SDS011;14721;42.668;23.386;2024-02-16T07:58:52;21.47;;;10.37;;
27209;SDS011;14721;42.668;23.386;2024-02-16T08:01:17;23.17;;;10.97;;
27209;SDS011;14721;42.668;23.386;2024-02-16T08:03:43;34.17;;;11.93;;
27209;SDS011;14721;42.668;23.386;2024-02-16T08:06:08;23.20;;;11.93;;
27209;SDS011;14721;42.668;23.386;2024-02-16T08:08:34;28.40;;;12.80;;
27209;SDS011;14721;42.668;23.386;2024-02-16T08:11:01;36.33;;;13.70;;
27209;SDS011;14721;42.668;23.386;2024-02-16T08:13:28;34.70;;;14.13;;
27209;SDS011;14721;42.668;23.386;2024-02-16T08:15:53;33.23;;;13.87;;
27209;SDS011;14721;42.668;23.386;2024-02-16T08:18:19;27.83;;;12.63;;
27209;SDS011;14721;42.668;23.386;2024-02-16T08:20:45;29.43;;;13.20;;
27209;SDS011;14721;42.668;23.386;2024-02-16T08:23:10;27.43;;;12.40;;
27209;SDS011;14721;42.668;23.386;2024-02-16T08:25:36;31.63;;;15.03;;
27209;SDS011;14721;42.668;23.386;2024-02-16T08:28:02;34.50;;;14.60;;
27209;SDS011;14721;42.668;23.386;2024-02-16T08:30:27;26.40;;;14.57;;
27209;SDS011;14721;42.668;23.386;2024-02-16T08:32:53;37.40;;;14.37;;
27209;SDS011;14721;42.668;23.386;2024-02-16T08:35:21;27.77;;;15.13;;
27209;SDS011;14721;42.668;23.386;2024-02-16T08:37:46;25.90;;;14.33;;
27209;SDS011;14721;42.668;23.386;2024-02-16T08:40:12;33.67;;;15.27;;
27209;SDS011;14721;42.668;23.386;2024-02-16T08:42:41;28.93;;;15.30;;
27209;SDS011;14721;42.668;23.386;2024-02-16T08:45:12;31.03;;;14.67;;
27209;SDS011;14721;42.668;23.386;2024-02-16T08:47:38;26.83;;;14.63;;
27209;SDS011;14721;42.668;23.386;2024-02-16T08:50:04;28.17;;;14.67;;
27209;SDS011;14721;42.668;23.386;2024-02-16T08:52:30;29.27;;;13.87;;
27209;SDS011;14721;42.668;23.386;2024-02-16T08:54:56;27.13;;;13.53;;
27209;SDS011;14721;42.668;23.386;2024-02-16T08:57:22;30.27;;;13.33;;
27209;SDS011;14721;42.668;23.386;2024-02-16T08:59:47;35.20;;;14.93;;
27209;SDS011;14721;42.668;23.386;2024-02-16T09:02:14;25.67;;;12.70;;
27209;SDS011;14721;42.668;23.386;2024-02-16T09:04:39;28.30;;;13.27;;
27209;SDS011;14721;42.668;23.386;2024-02-16T09:07:05;36.60;;;14.53;;
27209;SDS011;14721;42.668;23.386;2024-02-16T09:09:31;28.23;;;13.53;;
27209;SDS011;14721;42.668;23.386;2024-02-16T09:11:56;29.53;;;15.40;;
27209;SDS011;14721;42.668;23.386;2024-02-16T09:14:22;33.50;;;15.57;;
27209;SDS011;14721;42.668;23.386;2024-02-16T09:16:48;28.23;;;14.67;;
27209;SDS011;14721;42.668;23.386;2024-02-16T09:19:17;29.63;;;14.20;;
27209;SDS011;14721;42.668;23.386;2024-02-16T09:21:44;23.67;;;13.30;;
27209;SDS011;14721;42.668;23.386;2024-02-16T09:24:11;31.27;;;13.93;;
27209;SDS011;14721;42.668;23.386;2024-02-16T09:26:42;24.13;;;12.60;;
27209;SDS011;14721;42.668;23.386;2024-02-16T09:29:08;22.47;;;11.03;;
27209;SDS011;14721;42.668;23.386;2024-02-16T09:31:37;29.07;;;12.70;;
27209;SDS011;14721;42.668;23.386;2024-02-16T09:34:08;21.53;;;10.37;;
27209;SDS011;14721;42.668;23.386;2024-02-16T09:36:37;21.60;;;9.07;;
27209;SDS011;14721;42.668;23.386;2024-02-16T09:39:08;13.57;;;6.33;;
27209;SDS011;14721;42.668;23.386;2024-02-16T09:41:51;19.67;;;9.70;;
27209;SDS011;14721;42.668;23.386;2024-02-16T09:44:37;12.57;;;6.53;;
27209;SDS011;14721;42.668;23.386;2024-02-16T09:47:03;10.77;;;5.50;;
27209;SDS011;14721;42.668;23.386;2024-02-16T09:49:28;11.40;;;4.30;;
27209;SDS011;14721;42.668;23.386;2024-02-16T09:51:58;16.63;;;5.67;;
27209;SDS011;14721;42.668;23.386;2024-02-16T09:54:32;9.53;;;4.70;;
27209;SDS011;14721;42.668;23.386;2024-02-16T09:57:01;10.27;;;5.70;;
27209;SDS011;14721;42.668;23.386;2024-02-16T09:59:29;11.93;;;5.27;;
27209;SDS011;14721;42.668;23.386;2024-02-16T10:02:02;11.67;;;5.23;;
27209;SDS011;14721;42.668;23.386;2024-02-16T10:04:29;8.83;;;4.83;;
27209;SDS011;14721;42.668;23.386;2024-02-16T10:06:55;9.30;;;4.73;;
27209;SDS011;14721;42.668;23.386;2024-02-16T10:09:24;10.50;;;4.77;;
27209;SDS011;14721;42.668;23.386;2024-02-16T10:11:57;12.40;;;5.57;;
27209;SDS011;14721;42.668;23.386;2024-02-16T10:14:25;9.57;;;4.70;;
27209;SDS011;14721;42.668;23.386;2024-02-16T10:17:00;17.77;;;7.30;;
27209;SDS011;14721;42.668;23.386;2024-02-16T10:19:28;10.47;;;5.50;;
27209;SDS011;14721;42.668;23.386;2024-02-16T10:22:05;8.53;;;4.07;;
27209;SDS011;14721;42.668;23.386;2024-02-16T10:24:37;11.73;;;5.13;;
27209;SDS011;14721;42.668;23.386;2024-02-16T10:27:13;10.93;;;5.00;;
27209;SDS011;14721;42.668;23.386;2024-02-16T10:29:42;7.87;;;4.70;;
27209;SDS011;14721;42.668;23.386;2024-02-16T10:32:16;9.37;;;4.37;;
27209;SDS011;14721;42.668;23.386;2024-02-16T10:34:43;9.23;;;4.53;;
27209;SDS011;14721;42.668;23.386;2024-02-16T10:37:11;9.37;;;4.70;;
27209;SDS011;14721;42.668;23.386;2024-02-16T10:39:38;11.43;;;6.17;;
27209;SDS011;14721;42.668;23.386;2024-02-16T10:42:05;7.97;;;3.97;;
27209;SDS011;14721;42.668;23.386;2024-02-16T10:44:34;7.23;;;4.13;;
27209;SDS011;14721;42.668;23.386;2024-02-16T10:47:08;8.30;;;4.50;;
27209;SDS011;14721;42.668;23.386;2024-02-16T10:49:36;10.93;;;4.93;;
27209;SDS011;14721;42.668;23.386;2024-02-16T10:52:05;11.17;;;4.90;;
27209;SDS011;14721;42.668;23.386;2024-02-16T10:54:32;12.43;;;4.83;;
27209;SDS011;14721;42.668;23.386;2024-02-16T10:56:58;7.43;;;4.17;;
27209;SDS011;14721;42.668;23.386;2024-02-16T10:59:24;7.80;;;3.47;;
27209;SDS011;14721;42.668;23.386;2024-02-16T11:01:58;6.83;;;2.80;;
27209;SDS011;14721;42.668;23.386;2024-02-16T11:04:25;5.27;;;3.10;;
27209;SDS011;14721;42.668;23.386;2024-02-16T11:07:24;5.23;;;3.07;;
27209;SDS011;14721;42.668;23.386;2024-02-16T11:09:50;5.73;;;3.00;;
27209;SDS011;14721;42.668;23.386;2024-02-16T11:12:17;5.33;;;3.37;;
27209;SDS011;14721;42.668;23.386;2024-02-16T11:14:43;5.73;;;2.90;;
27209;SDS011;14721;42.668;23.386;2024-02-16T11:17:14;6.73;;;3.20;;
27209;SDS011;14721;42.668;23.386;2024-02-16T11:19:43;6.40;;;3.57;;
27209;SDS011;14721;42.668;23.386;2024-02-16T11:22:18;7.87;;;3.67;;
27209;SDS011;14721;42.668;23.386;2024-02-16T11:28:17;6.10;;;2.90;;
27209;SDS011;14721;42.668;23.386;2024-02-16T11:31:16;16.00;;;6.17;;
27209;SDS011;14721;42.668;23.386;2024-02-16T11:37:14;6.30;;;2.33;;
27209;SDS011;14721;42.668;23.386;2024-02-16T11:39:55;6.07;;;2.67;;
27209;SDS011;14721;42.668;23.386;2024-02-16T11:42:57;6.77;;;2.90;;
27209;SDS011;14721;42.668;23.386;2024-02-16T11:45:26;5.30;;;2.93;;
27209;SDS011;14721;42.668;23.386;2024-02-16T11:48:04;6.13;;;2.80;;
27209;SDS011;14721;42.668;23.386;2024-02-16T11:50:46;8.80;;;3.03;;
27209;SDS011;14721;42.668;23.386;2024-02-16T11:53:32;6.53;;;3.33;;
27209;SDS011;14721;42.668;23.386;2024-02-16T11:56:01;6.87;;;3.57;;
27209;SDS011;14721;42.668;23.386;2024-02-16T11:58:38;7.50;;;3.43;;
27209;SDS011;14721;42.668;23.386;2024-02-16T12:01:19;7.17;;;3.50;;
27209;SDS011;14721;42.668;23.386;2024-02-16T12:04:00;7.47;;;3.47;;
27209;SDS011;14721;42.668;23.386;2024-02-16T12:06:37;5.00;;;3.20;;
27209;SDS011;14721;42.668;23.386;2024-02-16T12:09:26;9.50;;;3.60;;
27209;SDS011;14721;42.668;23.386;2024-02-16T12:12:07;10.33;;;3.77;;
27209;SDS011;14721;42.668;23.386;2024-02-16T12:14:56;5.53;;;3.03;;
27209;SDS011;14721;42.668;23.386;2024-02-16T12:17:46;6.70;;;3.10;;
27209;SDS011;14721;42.668;23.386;2024-02-16T12:20:35;9.07;;;3.90;;
27209;SDS011;14721;42.668;23.386;2024-02-16T12:23:19;5.40;;;3.27;;
27209;SDS011;14721;42.668;23.386;2024-02-16T12:26:00;5.83;;;2.83;;
27209;SDS011;14721;42.668;23.386;2024-02-16T12:28:45;6.87;;;4.17;;
27209;SDS011;14721;42.668;23.386;2024-02-16T12:31:21;7.73;;;3.50;;
27209;SDS011;14721;42.668;23.386;2024-02-16T12:34:14;6.33;;;3.17;;
27209;SDS011;14721;42.668;23.386;2024-02-16T12:37:11;7.70;;;3.67;;
27209;SDS011;14721;42.668;23.386;2024-02-16T12:39:50;10.30;;;5.00;;
27209;SDS011;14721;42.668;23.386;2024-02-16T12:42:29;8.37;;;3.73;;
27209;SDS011;14721;42.668;23.386;2024-02-16T12:45:05;5.00;;;3.07;;
27209;SDS011;14721;42.668;23.386;2024-02-16T12:47:44;9.83;;;3.80;;
27209;SDS011;14721;42.668;23.386;2024-02-16T12:55:26;11.03;;;4.43;;
27209;SDS011;14721;42.668;23.386;2024-02-16T12:58:06;9.17;;;3.97;;
27209;SDS011;14721;42.668;23.386;2024-02-16T13:00:33;8.23;;;3.40;;
27209;SDS011;14721;42.668;23.386;2024-02-16T13:02:59;6.73;;;4.00;;
27209;SDS011;14721;42.668;23.386;2024-02-16T13:05:29;13.30;;;6.97;;
27209;SDS011;14721;42.668;23.386;2024-02-16T13:08:09;12.07;;;6.23;;
27209;SDS011;14721;42.668;23.386;2024-02-16T13:10:38;7.53;;;4.00;;
27209;SDS011;14721;42.668;23.386;2024-02-16T13:21:59;7.73;;;3.77;;
27209;SDS011;14721;42.668;23.386;2024-02-16T13:24:27;8.70;;;4.00;;
27209;SDS011;14721;42.668;23.386;2024-02-16T13:27:00;5.70;;;3.63;;
27209;SDS011;14721;42.668;23.386;2024-02-16T13:29:26;12.67;;;3.83;;
27209;SDS011;14721;42.668;23.386;2024-02-16T13:31:55;5.77;;;3.17;;
27209;SDS011;14721;42.668;23.386;2024-02-16T13:34:20;6.43;;;3.47;;
27209;SDS011;14721;42.668;23.386;2024-02-16T13:37:04;7.27;;;3.90;;
27209;SDS011;14721;42.668;23.386;2024-02-16T13:43:35;6.77;;;3.33;;
27209;SDS011;14721;42.668;23.386;2024-02-16T13:46:03;5.43;;;3.20;;
27209;SDS011;14721;42.668;23.386;2024-02-16T13:48:29;9.93;;;3.57;;
27209;SDS011;14721;42.668;23.386;2024-02-16T13:51:09;6.97;;;3.30;;
27209;SDS011;14721;42.668;23.386;2024-02-16T13:53:47;9.20;;;3.47;;
27209;SDS011;14721;42.668;23.386;2024-02-16T13:56:30;7.07;;;3.33;;
27209;SDS011;14721;42.668;23.386;2024-02-16T13:59:11;8.10;;;3.43;;
27209;SDS011;14721;42.668;23.386;2024-02-16T14:01:36;6.50;;;3.37;;
27209;SDS011;14721;42.668;23.386;2024-02-16T14:04:02;10.77;;;4.47;;
27209;SDS011;14721;42.668;23.386;2024-02-16T14:06:28;5.13;;;2.93;;
27209;SDS011;14721;42.668;23.386;2024-02-16T14:08:54;5.10;;;2.70;;
27209;SDS011;14721;42.668;23.386;2024-02-16T14:11:21;6.57;;;3.03;;
27209;SDS011;14721;42.668;23.386;2024-02-16T14:13:47;7.33;;;3.37;;
27209;SDS011;14721;42.668;23.386;2024-02-16T14:16:13;4.97;;;2.83;;
27209;SDS011;14721;42.668;23.386;2024-02-16T14:18:39;6.23;;;2.83;;
27209;SDS011;14721;42.668;23.386;2024-02-16T14:21:04;7.10;;;3.13;;
27209;SDS011;14721;42.668;23.386;2024-02-16T14:23:30;7.30;;;3.13;;
27209;SDS011;14721;42.668;23.386;2024-02-16T14:25:57;5.17;;;2.70;;
27209;SDS011;14721;42.668;23.386;2024-02-16T14:28:23;6.43;;;3.27;;
27209;SDS011;14721;42.668;23.386;2024-02-16T14:30:49;5.37;;;2.97;;
27209;SDS011;14721;42.668;23.386;2024-02-16T14:33:15;9.00;;;3.53;;
27209;SDS011;14721;42.668;23.386;2024-02-16T14:35:42;7.13;;;3.23;;
27209;SDS011;14721;42.668;23.386;2024-02-16T14:38:08;5.13;;;2.93;;
27209;SDS011;14721;42.668;23.386;2024-02-16T14:40:34;6.60;;;3.33;;
27209;SDS011;14721;42.668;23.386;2024-02-16T14:43:00;5.60;;;3.13;;
27209;SDS011;14721;42.668;23.386;2024-02-16T14:45:26;7.70;;;3.10;;
27209;SDS011;14721;42.668;23.386;2024-02-16T14:48:01;5.70;;;2.90;;
27209;SDS011;14721;42.668;23.386;2024-02-16T14:50:36;6.27;;;2.90;;
27209;SDS011;14721;42.668;23.386;2024-02-16T14:53:01;6.90;;;3.00;;
27209;SDS011;14721;42.668;23.386;2024-02-16T14:55:28;7.20;;;2.93;;
27209;SDS011;14721;42.668;23.386;2024-02-16T14:57:54;5.50;;;2.93;;
27209;SDS011;14721;42.668;23.386;2024-02-16T15:00:20;6.70;;;3.30;;
27209;SDS011;14721;42.668;23.386;2024-02-16T15:02:46;4.90;;;2.90;;
27209;SDS011;14721;42.668;23.386;2024-02-16T15:05:12;5.53;;;2.60;;
27209;SDS011;14721;42.668;23.386;2024-02-16T15:07:38;6.00;;;2.73;;
27209;SDS011;14721;42.668;23.386;2024-02-16T15:10:06;6.53;;;3.10;;
27209;SDS011;14721;42.668;23.386;2024-02-16T15:12:32;6.90;;;3.27;;